Contact Us:
Email: info@sawbill.com
Phone: (218)663-7150
Fax: (218)663-7980
Mail: 4620 Sawbill Trail
Box 2129
Tofte, MN 55615


Powered by
Movable Type 3.15
 
Sawbill Weather History Archives: October 2010
Current Sawbill Weather History | « September 2010 | November 2010 »


Date

High
Temperature

Low
Temperature

Barometric
Pressure

Relative
Humidity 7AM

9 AM
Temperature

Moisture

Snow

10/31/10 39 25 30.18 78% 25 0
10/30/10 38 30 30.03 71% 31 0
10/29/10 38 26 29.68 80% 31 Trace Trace
10/28/10 35 25 29.94 82% 26 .04" Trace
10/27/10 38 31 29.71 77% 31 .15" Trace
10/26/10 55 33 28.59 98% 33 1.1" 1"
10/25/10 53 45 28.79 98% 53 1.37"
10/24/10 46 43 29.32 98% 45 .13"
10/23/10 47 39 29.71 87% 44 0
10/22/10 54 32 29.83 86% 39 0
10/21/10 43 32 29.77 65% 34 0
10/20/10 49 32 29.68 71% 32 .04"
10/19/10 50 34 29.38 67% 40 0
10/18/10 48 30 29.68 80% 34 0
10/17/10 46 30 29.91 73% 30 0
10/16/10 55 36 29.88 71% 36 0
10/15/10 51 36 29.68 94% 38 0
10/14/10 56 40 29.94 78% 43 0
10/13/10 57 35 29.77 69% 41 0
10/12/10 61 37 29.94 81% 38 Trace
10/11/10 56 37 29.74 82% 37 0
10/10/10 69 42 29.80 81% 44 0
10/9/10 65 46 29.85 88% 47 0
10/8/10 73 48 29.94 69% 48 0
10/7/10 65 42 29.77 57% 50 0
10/6/10 60 42 29.91 71% 42 0
10/5/10 64 33 29.88 72% 54 0
10/4/10 61 31 30.12 75% 33 0
10/3/10 55 28 30.15 76% 31 0
10/2/10 48 29 30.21 76% 29 0
10/1/10 52 35 30.21 86% 35 0
 


Home I Trip Planning I Rentals and Outfitting I Reservations I Campgrounds I Sawbill Store I Sawbill News I Contact

© 1997 - 2017, Sawbill Canoe Outfitters, Inc. I Privacy Policy